Gallup Mills, Vermont
Current Conditions -  °F | °C
As of 1:35 PM on Wednesday 26 Nov 2014 (Local Time) from KCDA Reporting Station
Light Snow Light Snow  
Wind Chill: 25°   Ceiling: 1100
Heat Index: 31°   Visibility: 1.7mi
Dew Point: 26°   Wind: 6mph
Humidity: 82%   Direction: 340°NNW
Pressure: 30.1"   Gusts: NA
Location:  44.5627°N, 71.7775°W
Report Text: KCDA 261835Z AUTO 34005KT 1 3/4SM -SN OVC011 00/M03 A3010 RMK AO2 T10051032
Loading
Personal Weather Stations






























Interactive Weather Map New forecast layout! Learn more

10-Day Weather Forecast

Advertisements
Track Severe Weather on mobile